createdAt,value
2023-05-17T00:01:47.274Z,101960.69
2023-05-17T00:04:13.919Z,101965.47
2023-05-17T00:06:41.096Z,101955.47
2023-05-17T00:09:07.733Z,101967.00
2023-05-17T00:11:34.394Z,101962.56
2023-05-17T00:14:00.973Z,101965.22
2023-05-17T00:16:27.668Z,101963.91
2023-05-17T00:18:54.620Z,101971.44
2023-05-17T00:21:21.267Z,101961.91
2023-05-17T00:23:47.757Z,101964.13
2023-05-17T00:26:14.276Z,101969.94
2023-05-17T00:28:40.772Z,101966.03
2023-05-17T00:31:07.324Z,101969.84
2023-05-17T00:33:33.871Z,101961.19
2023-05-17T00:36:00.438Z,101968.63
2023-05-17T00:38:26.925Z,101963.81
2023-05-17T00:40:54.198Z,101966.16
2023-05-17T00:43:20.856Z,101972.84
2023-05-17T00:45:49.337Z,101968.47
2023-05-17T00:48:16.229Z,101961.72
2023-05-17T00:50:43.197Z,101957.78
2023-05-17T00:53:10.000Z,101962.06
2023-05-17T00:55:36.600Z,101967.53
2023-05-17T00:58:08.871Z,101954.06
2023-05-17T01:00:37.334Z,101961.25
2023-05-17T01:03:04.197Z,101959.00
2023-05-17T01:05:31.495Z,101964.19
2023-05-17T01:07:58.050Z,101962.88
2023-05-17T01:10:35.031Z,101959.59
2023-05-17T01:13:42.325Z,101966.59
2023-05-17T01:16:37.068Z,101956.97
2023-05-17T01:19:40.132Z,101952.53
2023-05-17T01:22:45.981Z,101957.78
2023-05-17T01:25:47.065Z,101956.50
2023-05-17T01:28:15.026Z,101960.28
2023-05-17T01:30:43.771Z,101965.31
2023-05-17T01:33:11.222Z,101962.66
2023-05-17T01:35:37.839Z,101968.81
2023-05-17T01:38:04.355Z,101973.53
2023-05-17T01:40:35.462Z,101969.69
2023-05-17T01:43:15.468Z,101971.22
2023-05-17T01:45:49.907Z,101978.34
2023-05-17T01:48:19.511Z,101970.88
2023-05-17T01:50:51.121Z,101974.97
2023-05-17T01:53:29.205Z,101966.56
2023-05-17T01:56:01.282Z,101973.53
2023-05-17T01:58:30.651Z,101987.28
2023-05-17T02:01:00.561Z,101990.28
2023-05-17T02:03:29.037Z,101977.56
2023-05-17T02:05:55.598Z,101990.66
2023-05-17T02:08:22.227Z,101990.75
2023-05-17T02:10:48.776Z,101986.81
2023-05-17T02:13:15.233Z,101983.19
2023-05-17T02:15:41.711Z,101984.34
2023-05-17T02:18:08.353Z,101984.78
2023-05-17T02:20:35.026Z,101989.88
2023-05-17T02:23:01.545Z,101992.97
2023-05-17T02:25:28.277Z,101994.94
2023-05-17T02:27:55.428Z,101995.38
2023-05-17T02:30:22.330Z,101994.59
2023-05-17T02:32:48.925Z,101995.66
2023-05-17T02:35:15.825Z,102001.44
2023-05-17T02:37:42.283Z,101990.31
2023-05-17T02:40:09.923Z,102000.13
2023-05-17T02:42:36.957Z,102008.28
2023-05-17T02:45:03.944Z,102007.22
2023-05-17T02:47:30.653Z,102007.75
2023-05-17T02:49:59.910Z,102009.03
2023-05-17T02:52:26.406Z,102015.44
2023-05-17T02:54:52.929Z,102016.38
2023-05-17T02:57:19.489Z,102019.78
2023-05-17T02:59:46.098Z,102019.41
2023-05-17T03:02:12.880Z,102019.88
2023-05-17T03:04:39.445Z,102014.06
2023-05-17T03:07:07.251Z,102019.13
2023-05-17T03:09:34.320Z,102025.53
2023-05-17T03:12:01.104Z,102034.56
2023-05-17T03:14:27.625Z,102028.38
2023-05-17T03:16:54.117Z,102026.88
2023-05-17T03:19:20.833Z,102035.88
2023-05-17T03:21:47.366Z,102038.19
2023-05-17T03:24:13.878Z,102031.22
2023-05-17T03:26:40.413Z,102028.53
2023-05-17T03:29:06.932Z,102037.28
2023-05-17T03:31:33.531Z,102039.84
2023-05-17T03:34:00.077Z,102040.47
2023-05-17T03:36:26.581Z,102047.06
2023-05-17T03:38:53.042Z,102054.78
2023-05-17T03:41:19.731Z,102056.16
2023-05-17T03:43:46.233Z,102057.34
2023-05-17T03:46:12.822Z,102062.88
2023-05-17T03:48:39.382Z,102062.94
2023-05-17T03:51:06.249Z,102060.16
2023-05-17T03:53:32.754Z,102064.09
2023-05-17T03:55:59.229Z,102056.53
2023-05-17T03:58:25.726Z,102069.22
2023-05-17T04:00:52.230Z,102073.84
2023-05-17T04:03:20.129Z,102071.59
2023-05-17T04:05:47.128Z,102076.41
2023-05-17T04:08:16.586Z,102079.25
2023-05-17T04:10:43.265Z,102087.97
2023-05-17T04:13:09.820Z,102082.97
2023-05-17T04:15:36.746Z,102088.50
2023-05-17T04:18:03.364Z,102094.69
2023-05-17T04:20:30.127Z,102101.53
2023-05-17T04:22:56.726Z,102096.81
2023-05-17T04:25:24.627Z,102100.38
2023-05-17T04:27:51.140Z,102096.97
2023-05-17T04:30:17.766Z,102097.38
2023-05-17T04:32:44.294Z,102099.44
2023-05-17T04:35:10.886Z,102098.25
2023-05-17T04:37:39.793Z,102102.66
2023-05-17T04:40:07.915Z,102100.97
2023-05-17T04:42:34.890Z,102111.94
2023-05-17T04:45:01.573Z,102111.88
2023-05-17T04:47:28.285Z,102122.13
2023-05-17T04:49:56.233Z,102116.19
2023-05-17T04:52:22.743Z,102116.91
2023-05-17T04:54:50.212Z,102118.50
2023-05-17T04:57:16.803Z,102125.28
2023-05-17T04:59:43.345Z,102130.81
2023-05-17T05:02:10.579Z,102136.50
2023-05-17T05:04:37.223Z,102141.16
2023-05-17T05:07:03.922Z,102139.72
2023-05-17T05:09:30.497Z,102143.66
2023-05-17T05:11:57.069Z,102140.66
2023-05-17T05:14:23.640Z,102154.22
2023-05-17T05:16:50.134Z,102152.31
2023-05-17T05:19:16.927Z,102158.66
2023-05-17T05:21:46.482Z,102157.59
2023-05-17T05:24:12.965Z,102162.03
2023-05-17T05:26:39.568Z,102162.09
2023-05-17T05:29:06.103Z,102169.72
2023-05-17T05:31:32.657Z,102177.75
2023-05-17T05:33:59.131Z,102175.03
2023-05-17T05:36:25.850Z,102192.63
2023-05-17T05:38:54.473Z,102182.84
2023-05-17T05:41:21.046Z,102185.75
2023-05-17T05:43:47.562Z,102180.00
2023-05-17T05:46:14.067Z,102188.44
2023-05-17T05:48:43.439Z,102179.09
2023-05-17T05:51:10.852Z,102185.94
2023-05-17T05:53:38.600Z,102184.34
2023-05-17T05:56:05.429Z,102193.22
2023-05-17T05:58:32.125Z,102202.13
2023-05-17T06:00:59.978Z,102192.25
2023-05-17T06:03:26.625Z,102201.94
2023-05-17T06:05:53.454Z,102200.41
2023-05-17T06:08:20.031Z,102194.63
2023-05-17T06:10:46.914Z,102202.31
2023-05-17T06:13:13.853Z,102193.66
2023-05-17T06:15:40.817Z,102198.53
2023-05-17T06:18:07.447Z,102202.25
2023-05-17T06:20:34.017Z,102203.88
2023-05-17T06:23:00.576Z,102194.50
2023-05-17T06:25:27.124Z,102195.47
2023-05-17T06:27:53.624Z,102208.81
2023-05-17T06:30:20.314Z,102211.84
2023-05-17T06:32:46.857Z,102218.63
2023-05-17T06:35:13.422Z,102215.28
2023-05-17T06:37:39.935Z,102212.22
2023-05-17T06:40:16.101Z,102206.00
2023-05-17T06:42:43.786Z,102210.97
2023-05-17T06:45:10.957Z,102211.81
2023-05-17T06:47:37.714Z,102206.75
2023-05-17T06:50:04.521Z,102212.69
2023-05-17T06:52:31.108Z,102210.50
2023-05-17T06:54:57.685Z,102216.13
2023-05-17T06:57:24.859Z,102214.56
2023-05-17T06:59:52.238Z,102217.34
2023-05-17T07:02:19.416Z,102217.03
2023-05-17T07:04:46.141Z,102229.88
2023-05-17T07:07:12.766Z,102225.59
2023-05-17T07:09:39.921Z,102227.25
2023-05-17T07:12:06.862Z,102220.13
2023-05-17T07:14:33.518Z,102226.09
2023-05-17T07:17:00.055Z,102234.63
2023-05-17T07:19:26.744Z,102234.72
2023-05-17T07:21:53.397Z,102238.78
2023-05-17T07:24:19.905Z,102242.44
2023-05-17T07:26:46.452Z,102246.34
2023-05-17T07:29:13.111Z,102261.03
2023-05-17T07:31:39.655Z,102249.38
2023-05-17T07:34:06.189Z,102248.53
2023-05-17T07:36:32.770Z,102247.66
2023-05-17T07:38:59.333Z,102248.38
2023-05-17T07:41:27.124Z,102246.84
2023-05-17T07:43:53.702Z,102248.13
2023-05-17T07:46:20.346Z,102251.38
2023-05-17T07:48:47.030Z,102253.38
2023-05-17T07:51:13.911Z,102259.69
2023-05-17T07:53:40.600Z,102257.56
2023-05-17T07:56:07.314Z,102256.75
2023-05-17T07:58:33.978Z,102256.78
2023-05-17T08:01:00.475Z,102262.75
2023-05-17T08:03:28.439Z,102264.84
2023-05-17T08:05:55.073Z,102260.88
2023-05-17T08:08:21.916Z,102258.97
2023-05-17T08:10:48.498Z,102262.66
2023-05-17T08:13:15.161Z,102274.28
2023-05-17T08:15:41.663Z,102269.25
2023-05-17T08:18:08.263Z,102274.47
2023-05-17T08:20:34.883Z,102268.09
2023-05-17T08:23:01.487Z,102273.03
2023-05-17T08:25:30.275Z,102274.19
2023-05-17T08:27:56.942Z,102276.63
2023-05-17T08:30:28.981Z,102272.22
2023-05-17T08:32:56.760Z,102273.06
2023-05-17T08:35:26.958Z,102282.59
2023-05-17T08:37:55.056Z,102261.50
2023-05-17T08:40:21.963Z,102281.91
2023-05-17T08:42:53.041Z,102277.47
2023-05-17T08:45:19.729Z,102277.84
2023-05-17T08:47:46.618Z,102287.53
2023-05-17T08:50:14.390Z,102282.03
2023-05-17T08:52:44.814Z,102286.00
2023-05-17T08:55:11.954Z,102290.41
2023-05-17T08:57:40.374Z,102287.59
2023-05-17T09:00:13.509Z,102290.31
2023-05-17T09:02:42.177Z,102295.03
2023-05-17T09:05:10.879Z,102283.50
2023-05-17T09:07:37.714Z,102285.09
2023-05-17T09:10:05.813Z,102285.16
2023-05-17T09:12:36.730Z,102290.00
2023-05-17T09:15:20.856Z,102289.63
2023-05-17T09:17:54.572Z,102288.84
2023-05-17T09:20:25.040Z,102289.25
2023-05-17T09:22:52.481Z,102295.22
2023-05-17T09:25:20.222Z,102282.44
2023-05-17T09:27:46.814Z,102287.25
2023-05-17T09:30:13.458Z,102288.88
2023-05-17T09:32:47.013Z,102292.47
2023-05-17T09:35:14.039Z,102292.47
2023-05-17T09:37:43.229Z,102291.69
2023-05-17T09:40:10.677Z,102292.09
2023-05-17T09:42:39.147Z,102293.66
2023-05-17T09:45:05.952Z,102295.59
2023-05-17T09:47:35.245Z,102287.53
2023-05-17T09:50:03.696Z,102294.75
2023-05-17T09:52:35.166Z,102293.91
2023-05-17T09:55:01.871Z,102300.34
2023-05-17T09:57:36.881Z,102300.34
2023-05-17T10:00:12.072Z,102291.59
2023-05-17T10:02:41.239Z,102300.84
2023-05-17T10:05:11.962Z,102288.81
2023-05-17T10:07:38.953Z,102297.59
2023-05-17T10:10:06.596Z,102293.97
2023-05-17T10:12:38.505Z,102295.19
2023-05-17T10:15:05.618Z,102281.19
2023-05-17T10:17:32.325Z,102279.56
2023-05-17T10:19:59.377Z,102291.19
2023-05-17T10:22:27.541Z,102292.41
2023-05-17T10:24:56.089Z,102280.84
2023-05-17T10:27:23.928Z,102286.44
2023-05-17T10:29:53.431Z,102284.44
2023-05-17T10:32:23.508Z,102279.97
2023-05-17T10:34:58.089Z,102277.56
2023-05-17T10:37:33.834Z,102262.34
2023-05-17T10:40:00.689Z,102266.66
2023-05-17T10:42:28.013Z,102266.53
2023-05-17T10:44:54.811Z,102286.50
2023-05-17T10:47:22.292Z,102276.78
2023-05-17T10:49:51.551Z,102282.81
2023-05-17T10:52:21.266Z,102279.84
2023-05-17T10:54:50.140Z,102276.59
2023-05-17T10:57:22.422Z,102266.09
2023-05-17T11:00:00.739Z,102267.97
2023-05-17T11:02:28.858Z,102270.13
2023-05-17T11:05:00.440Z,102262.78
2023-05-17T11:07:33.748Z,102260.97
2023-05-17T11:10:00.471Z,102256.19
2023-05-17T11:12:38.395Z,102256.84
2023-05-17T11:15:12.168Z,102248.22
2023-05-17T11:17:44.703Z,102249.25
2023-05-17T11:20:32.618Z,102248.81
2023-05-17T11:23:02.198Z,102250.59
2023-05-17T11:25:36.905Z,102247.94
2023-05-17T11:28:08.894Z,102249.63
2023-05-17T11:30:41.922Z,102254.66
2023-05-17T11:33:20.484Z,102251.56
2023-05-17T11:35:54.728Z,102255.31
2023-05-17T11:38:24.394Z,102248.59
2023-05-17T11:40:54.855Z,102259.94
2023-05-17T11:43:23.336Z,102262.06
2023-05-17T11:45:53.409Z,102257.09
2023-05-17T11:48:22.842Z,102259.75
2023-05-17T11:50:51.275Z,102253.19
2023-05-17T11:53:18.693Z,102256.84
2023-05-17T11:55:47.957Z,102259.41
2023-05-17T11:58:21.073Z,102262.56
2023-05-17T12:00:53.698Z,102253.66
2023-05-17T12:03:21.402Z,102246.19
2023-05-17T12:05:50.160Z,102250.63
2023-05-17T12:08:19.137Z,102242.31
2023-05-17T12:10:50.853Z,102246.75
2023-05-17T12:13:17.863Z,102247.22
2023-05-17T12:15:48.496Z,102245.72
2023-05-17T12:18:15.157Z,102240.25
2023-05-17T12:20:57.834Z,102249.25
2023-05-17T12:23:33.218Z,102242.72
2023-05-17T12:26:06.636Z,102252.31
2023-05-17T12:28:33.992Z,102246.56
2023-05-17T12:31:04.980Z,102247.44
2023-05-17T12:33:37.079Z,102254.63
2023-05-17T12:36:04.431Z,102247.13
2023-05-17T12:38:35.078Z,102260.88
2023-05-17T12:41:06.642Z,102254.00
2023-05-17T12:43:34.817Z,102247.88
2023-05-17T12:46:07.229Z,102242.84
2023-05-17T12:48:38.294Z,102250.09
2023-05-17T12:51:12.184Z,102250.53
2023-05-17T12:53:49.492Z,102246.66
2023-05-17T12:56:18.060Z,102245.22
2023-05-17T12:59:03.181Z,102244.66
2023-05-17T13:01:43.767Z,102243.06
2023-05-17T13:04:11.511Z,102232.66
2023-05-17T13:06:58.798Z,102237.31
2023-05-17T13:09:28.853Z,102244.53
2023-05-17T13:12:00.923Z,102241.06
2023-05-17T13:14:44.365Z,102237.44
2023-05-17T13:17:15.112Z,102241.38
2023-05-17T13:19:42.354Z,102231.69
2023-05-17T13:22:09.133Z,102233.16
2023-05-17T13:24:37.734Z,102246.19
2023-05-17T13:27:05.651Z,102234.50
2023-05-17T13:29:39.616Z,102235.13
2023-05-17T13:32:08.224Z,102227.28
2023-05-17T13:34:35.572Z,102231.84
2023-05-17T13:37:02.160Z,102216.09
2023-05-17T13:39:28.701Z,102220.53
2023-05-17T13:41:55.263Z,102227.28
2023-05-17T13:44:21.999Z,102229.38
2023-05-17T13:46:48.488Z,102227.94
2023-05-17T13:49:15.256Z,102220.28
2023-05-17T13:51:42.922Z,102229.13
2023-05-17T13:54:10.573Z,102209.22
2023-05-17T13:56:37.371Z,102208.47
2023-05-17T13:59:04.031Z,102218.72
2023-05-17T14:01:30.906Z,102212.44
2023-05-17T14:03:57.753Z,102201.69
2023-05-17T14:06:24.512Z,102201.69
2023-05-17T14:08:53.142Z,102207.56
2023-05-17T14:11:19.717Z,102209.91
2023-05-17T14:13:46.320Z,102205.81
2023-05-17T14:16:12.812Z,102208.31
2023-05-17T14:18:40.718Z,102211.31
2023-05-17T14:21:08.278Z,102205.28
2023-05-17T14:23:35.524Z,102211.66
2023-05-17T14:26:05.107Z,102215.72
2023-05-17T14:28:31.903Z,102206.84
2023-05-17T14:30:58.629Z,102205.63
2023-05-17T14:33:26.835Z,102200.25
2023-05-17T14:35:53.577Z,102209.28
2023-05-17T14:38:22.292Z,102202.84
2023-05-17T14:40:48.985Z,102211.13
2023-05-17T14:43:15.898Z,102206.56
2023-05-17T14:45:42.486Z,102210.03
2023-05-17T14:48:09.194Z,102196.16
2023-05-17T14:50:35.842Z,102210.25
2023-05-17T14:53:02.522Z,102204.59
2023-05-17T14:55:30.104Z,102213.63
2023-05-17T14:57:57.987Z,102203.03
2023-05-17T15:00:24.866Z,102205.16
2023-05-17T15:02:51.436Z,102211.13
2023-05-17T15:05:18.617Z,102210.88
2023-05-17T15:07:45.278Z,102203.63
2023-05-17T15:10:13.045Z,102205.78
2023-05-17T15:12:39.556Z,102205.66
2023-05-17T15:15:06.739Z,102202.25
2023-05-17T15:17:33.855Z,102198.97
2023-05-17T15:20:00.585Z,102194.03
2023-05-17T15:22:27.118Z,102201.47
2023-05-17T15:24:54.333Z,102194.50
2023-05-17T15:27:21.040Z,102183.75
2023-05-17T15:29:47.974Z,102189.34
2023-05-17T15:32:14.599Z,102208.88
2023-05-17T15:34:41.473Z,102194.22
2023-05-17T15:37:08.021Z,102193.66
2023-05-17T15:39:34.557Z,102190.25
2023-05-17T15:42:01.095Z,102186.31
2023-05-17T15:44:27.634Z,102201.13
2023-05-17T15:46:54.231Z,102188.34
2023-05-17T15:49:21.083Z,102194.63
2023-05-17T15:51:47.767Z,102199.59
2023-05-17T15:54:14.818Z,102203.69
2023-05-17T15:56:42.056Z,102201.38
2023-05-17T15:59:08.698Z,102194.28
2023-05-17T16:01:35.592Z,102197.53
2023-05-17T16:04:08.713Z,102199.22
2023-05-17T16:06:36.733Z,102199.88
2023-05-17T16:09:03.425Z,102200.97
2023-05-17T16:11:30.003Z,102187.75
2023-05-17T16:13:57.124Z,102194.03
2023-05-17T16:16:23.716Z,102189.44
2023-05-17T16:18:50.641Z,102193.72
2023-05-17T16:21:17.280Z,102203.31
2023-05-17T16:23:43.891Z,102203.59
2023-05-17T16:26:10.770Z,102196.56
2023-05-17T16:28:37.390Z,102205.19
2023-05-17T16:31:05.621Z,102204.59
2023-05-17T16:33:34.194Z,102210.19
2023-05-17T16:36:00.962Z,102209.31
2023-05-17T16:38:27.545Z,102208.66
2023-05-17T16:40:54.104Z,102206.97
2023-05-17T16:43:20.618Z,102207.69
2023-05-17T16:45:47.127Z,102204.47
2023-05-17T16:48:15.193Z,102214.97
2023-05-17T16:50:42.326Z,102222.97
2023-05-17T16:53:09.057Z,102223.78
2023-05-17T16:55:36.604Z,102230.66
2023-05-17T16:58:03.599Z,102225.34
2023-05-17T17:00:31.232Z,102228.69
2023-05-17T17:02:58.551Z,102227.19
2023-05-17T17:05:25.760Z,102228.56
2023-05-17T17:07:52.465Z,102224.69
2023-05-17T17:10:20.135Z,102220.88
2023-05-17T17:12:48.024Z,102209.28
2023-05-17T17:15:15.454Z,102219.13
2023-05-17T17:17:42.669Z,102209.72
2023-05-17T17:20:09.789Z,102217.34
2023-05-17T17:22:36.304Z,102224.03
2023-05-17T17:25:03.044Z,102216.25
2023-05-17T17:27:29.564Z,102217.28
2023-05-17T17:29:56.169Z,102217.78
2023-05-17T17:32:22.743Z,102225.44
2023-05-17T17:34:49.368Z,102219.66
2023-05-17T17:37:15.931Z,102215.53
2023-05-17T17:39:42.498Z,102227.97
2023-05-17T17:42:10.390Z,102228.47
2023-05-17T17:44:36.946Z,102230.50
2023-05-17T17:47:03.533Z,102228.75
2023-05-17T17:49:30.257Z,102237.66
2023-05-17T17:51:58.200Z,102233.75
2023-05-17T17:54:24.798Z,102227.34
2023-05-17T17:56:51.340Z,102244.19
2023-05-17T17:59:17.847Z,102245.81
2023-05-17T18:01:44.618Z,102245.50
2023-05-17T18:04:13.542Z,102247.13
2023-05-17T18:06:41.807Z,102248.41
2023-05-17T18:09:08.684Z,102245.22
2023-05-17T18:11:35.356Z,102246.03
2023-05-17T18:14:02.581Z,102250.91
2023-05-17T18:16:29.389Z,102258.06
2023-05-17T18:18:56.340Z,102254.88
2023-05-17T18:21:23.318Z,102254.13
2023-05-17T18:23:49.918Z,102258.09
2023-05-17T18:26:16.410Z,102252.16
2023-05-17T18:28:43.291Z,102260.53
2023-05-17T18:31:10.598Z,102252.97
2023-05-17T18:33:37.183Z,102262.94
2023-05-17T18:36:03.936Z,102257.31
2023-05-17T18:38:30.544Z,102254.97
2023-05-17T18:40:57.091Z,102246.97
2023-05-17T18:43:23.600Z,102258.94
2023-05-17T18:45:51.320Z,102248.56
2023-05-17T18:48:18.076Z,102250.16
2023-05-17T18:50:44.867Z,102255.75
2023-05-17T18:53:12.853Z,102260.53
2023-05-17T18:55:39.557Z,102256.53
2023-05-17T18:58:06.059Z,102258.13
2023-05-17T19:00:33.107Z,102253.72
2023-05-17T19:02:59.822Z,102264.06
2023-05-17T19:05:26.391Z,102262.06
2023-05-17T19:07:52.932Z,102257.25
2023-05-17T19:10:20.696Z,102257.25
2023-05-17T19:12:47.274Z,102261.19
2023-05-17T19:15:13.888Z,102258.78
2023-05-17T19:17:40.607Z,102272.72
2023-05-17T19:20:08.073Z,102265.09
2023-05-17T19:22:35.824Z,102268.25
2023-05-17T19:25:02.606Z,102265.03
2023-05-17T19:27:29.457Z,102266.16
2023-05-17T19:29:56.069Z,102270.16
2023-05-17T19:32:22.862Z,102276.47
2023-05-17T19:34:49.878Z,102271.66
2023-05-17T19:37:16.638Z,102276.78
2023-05-17T19:39:43.144Z,102285.91
2023-05-17T19:42:09.645Z,102283.44
2023-05-17T19:44:36.258Z,102290.16
2023-05-17T19:47:02.827Z,102290.91
2023-05-17T19:49:29.313Z,102292.44
2023-05-17T19:52:00.558Z,102289.97
2023-05-17T19:54:30.160Z,102294.16
2023-05-17T19:56:57.482Z,102298.53
2023-05-17T19:59:24.082Z,102294.06
2023-05-17T20:01:50.987Z,102298.38
2023-05-17T20:04:17.645Z,102303.91
2023-05-17T20:06:44.275Z,102301.50
2023-05-17T20:09:11.228Z,102297.91
2023-05-17T20:11:37.923Z,102304.22
2023-05-17T20:14:04.540Z,102301.81
2023-05-17T20:16:31.252Z,102295.00
2023-05-17T20:18:58.501Z,102303.66
2023-05-17T20:21:26.348Z,102300.06
2023-05-17T20:24:00.529Z,102300.81
2023-05-17T20:26:31.508Z,102297.16
2023-05-17T20:28:59.133Z,102307.44
2023-05-17T20:31:26.141Z,102301.88
2023-05-17T20:33:53.121Z,102303.41
2023-05-17T20:36:19.816Z,102307.72
2023-05-17T20:38:46.832Z,102306.88
2023-05-17T20:41:15.013Z,102310.03
2023-05-17T20:43:45.268Z,102304.38
2023-05-17T20:46:15.976Z,102303.56
2023-05-17T20:48:43.219Z,102310.25
2023-05-17T20:51:10.789Z,102307.81
2023-05-17T20:53:38.000Z,102304.97
2023-05-17T20:56:05.417Z,102312.09
2023-05-17T20:58:32.221Z,102321.59
2023-05-17T21:01:02.708Z,102315.97
2023-05-17T21:03:34.210Z,102310.78
2023-05-17T21:06:02.203Z,102315.47
2023-05-17T21:08:29.016Z,102316.88
2023-05-17T21:10:56.160Z,102317.25
2023-05-17T21:13:25.440Z,102314.44
2023-05-17T21:15:53.450Z,102315.84
2023-05-17T21:18:20.260Z,102316.25
2023-05-17T21:20:46.966Z,102315.34
2023-05-17T21:23:13.528Z,102308.13
2023-05-17T21:25:40.071Z,102317.28
2023-05-17T21:28:07.605Z,102318.75
2023-05-17T21:30:34.174Z,102322.28
2023-05-17T21:33:00.739Z,102320.25
2023-05-17T21:35:27.263Z,102318.94
2023-05-17T21:37:53.752Z,102320.44
2023-05-17T21:40:26.296Z,102317.53
2023-05-17T21:42:52.921Z,102322.19
2023-05-17T21:45:19.537Z,102325.69
2023-05-17T21:47:46.064Z,102317.66
2023-05-17T21:50:12.637Z,102321.97
2023-05-17T21:52:39.171Z,102327.13
2023-05-17T21:55:06.460Z,102327.03
2023-05-17T21:57:36.078Z,102314.25
2023-05-17T22:00:04.874Z,102324.59
2023-05-17T22:02:38.393Z,102317.22
2023-05-17T22:05:05.711Z,102320.78
2023-05-17T22:07:32.230Z,102328.97
2023-05-17T22:09:58.834Z,102332.13
2023-05-17T22:12:27.134Z,102324.25
2023-05-17T22:15:00.288Z,102330.03
2023-05-17T22:17:35.220Z,102322.78
2023-05-17T22:20:11.349Z,102324.34
2023-05-17T22:22:38.168Z,102324.19
2023-05-17T22:25:05.475Z,102332.16
2023-05-17T22:27:32.005Z,102333.66
2023-05-17T22:29:59.745Z,102333.94
2023-05-17T22:32:26.302Z,102334.59
2023-05-17T22:34:53.061Z,102342.94
2023-05-17T22:37:22.800Z,102331.59
2023-05-17T22:39:49.794Z,102327.59
2023-05-17T22:42:16.419Z,102325.81
2023-05-17T22:44:42.984Z,102337.81
2023-05-17T22:47:14.551Z,102345.69
2023-05-17T22:49:41.661Z,102341.66
2023-05-17T22:52:08.954Z,102347.13
2023-05-17T22:54:37.026Z,102346.97
2023-05-17T22:57:09.698Z,102350.56
2023-05-17T22:59:36.289Z,102347.69
2023-05-17T23:02:02.889Z,102350.66
2023-05-17T23:04:30.070Z,102345.94
2023-05-17T23:07:02.306Z,102344.25
2023-05-17T23:09:33.712Z,102343.28
2023-05-17T23:12:05.525Z,102350.34
2023-05-17T23:14:34.061Z,102340.81
2023-05-17T23:17:01.968Z,102346.25
2023-05-17T23:19:29.898Z,102340.91
2023-05-17T23:21:57.086Z,102348.31
2023-05-17T23:24:25.763Z,102349.91
2023-05-17T23:26:52.701Z,102345.91
2023-05-17T23:29:20.011Z,102341.09
2023-05-17T23:31:48.184Z,102346.47
2023-05-17T23:34:15.547Z,102337.63
2023-05-17T23:36:42.049Z,102348.69
2023-05-17T23:39:09.090Z,102349.41
2023-05-17T23:41:37.757Z,102350.13
2023-05-17T23:44:05.447Z,102355.75
2023-05-17T23:46:32.353Z,102353.63
2023-05-17T23:48:58.882Z,102358.25
2023-05-17T23:51:25.664Z,102352.34
2023-05-17T23:53:52.356Z,102350.66
2023-05-17T23:56:19.509Z,102354.69
2023-05-17T23:58:46.830Z,102342.72
